Pagrindinis puslapis
METAR-TAF:

METAR-TAF

Oro uostai :

Sankt Galenas, Šveicarija

platuma: 47-29-06N, ilguma: 009-33-43E, Aukštis: 398 m

Dabartinis oras

Ataskaita buvo paskelbta 20 minutes, ne 10:50 UTC
Vėjas 4 kt iš Šiaurės Vakarų
Temperatūra 14°C
Drėgmė 77%
Slėgis 1021 hPa
Matomumas 10 km arba daugiau
nėra debesų žemiau 1500 m ir nėra kamuolinių lietaus debesų

METAR: LSZR 211050Z 31004KT CAVOK 14/10 Q1021 NOSIG RMK G

Laikas: 13:10 (11:10 UTC)

Prognozė

Ataskaita buvo paskelbta 2 valandos ir 45 minutes, ne 08:25 UTC
Prognozė galioja nuo 21 metu 09 UTC su 21 metu 18 UTC
Vėjas 3 kt nuo kintamojo kryptimis
Matomumas 10 km arba daugiau
nėra debesų žemiau 1500 m ir nėra kamuolinių lietaus debesų

TAF: LSZR 210825Z 2109/2118 VRB03KT CAVOK

Orai ataskaitas ir orų prognozės (METAR, TAF).

turimą stotys yra geltonos ir raudonos taškus žemėlapyje.

Perkelti pele per norėdami pamatyti stoties vardą.

Tada spustelėkite, norėdami matyti oro stebėjimo ir prognozės.

Norėdami pakeisti žemėlapį: spustelėkite ant žalios mygtukų su juodo kryžiaus žemyn,; žalią mygtuką su brūkšneliu, jei norite nutolinti; arba žalių rodyklių gretimoms žemėlapius.


METAR-TAF: